• Join FlightAware (Why Join?)
  • Login
  • US Flag 
07:50PM EST


 

Airport Tracker/Info


-or-


 

Live Flight TrackerFlight Track Log ✈ ANA1186 ✈ 10-Aug-2014 ✈ RCSS / TSA - RJTT / HND

Flight Track Log - Related Links

Times and Time Zones

All times are in EDT time to prevent confusion due to time zone crossing. See the ANA1186 flight status page for this flight to view local times or setup timezone preferences in your user account.

Time Position Orientation Groundspeed Altitude Reporting Facility
EDT Latitude Longitude Course Direction KTS MPH feet Rate Location/Type
02:06AM 25.2853 121.9305 52° Northeast  Level Estimated
02:07AM 25.3517 122.0244 52° Northeast  Level Estimated
02:08AM 25.4179 122.1184 52° Northeast  Level Estimated
02:09AM 25.4841 122.2126 52° Northeast  Level Estimated
02:10AM 25.5503 122.3068 52° Northeast  Level Estimated
02:11AM 25.6164 122.4011 52° Northeast  Level Estimated
02:12AM 25.6824 122.4956 52° Northeast  Level Estimated
02:13AM 25.7483 122.5901 52° Northeast  Level Estimated
02:14AM 25.8142 122.6847 52° Northeast  Level Estimated
02:15AM 25.8801 122.7795 52° Northeast  Level Estimated
02:16AM 25.9459 122.8743 52° Northeast  Level Estimated
02:17AM 26.0116 122.9693 52° Northeast  Level Estimated
02:18AM 26.0772 123.0644 52° Northeast  Level Estimated
02:19AM 26.1428 123.1595 52° Northeast  Level Estimated
02:20AM 26.2192 123.2707 53° Northeast  Level Estimated
02:21AM 26.2956 123.3820 53° Northeast  Level Estimated
02:22AM 26.3719 123.4935 53° Northeast  Level Estimated
02:23AM 26.4481 123.6051 53° Northeast  Level Estimated
02:24AM 26.5242 123.7169 53° Northeast  Level Estimated
02:25AM 26.6002 123.8288 53° Northeast  Level Estimated
02:26AM 26.6761 123.9408 53° Northeast  Level Estimated
02:27AM 26.7519 124.0530 53° Northeast  Level Estimated
02:28AM 26.8277 124.1654 53° Northeast  Level Estimated
02:29AM 26.9033 124.2779 53° Northeast  Level Estimated
02:30AM 26.9789 124.3905 53° Northeast  Level Estimated
02:31AM 27.0544 124.5033 53° Northeast  Level Estimated
02:32AM 27.1298 124.6163 53° Northeast  Level Estimated
02:33AM 27.2051 124.7294 53° Northeast  Level Estimated
02:34AM 27.2803 124.8427 53° Northeast  Level Estimated
02:35AM 27.3554 124.9561 53° Northeast  Level Estimated
02:36AM 27.4304 125.0697 53° Northeast  Level Estimated
02:37AM 27.5054 125.1834 53° Northeast  Level Estimated
02:38AM 27.5802 125.2973 53° Northeast  Level Estimated
02:39AM 27.6549 125.4113 53° Northeast  Level Estimated
02:40AM 27.7296 125.5255 54° Northeast  Level Estimated
02:41AM 27.8042 125.6399 54° Northeast  Level Estimated
02:42AM 27.8786 125.7544 54° Northeast  Level Estimated
02:43AM 27.9530 125.8690 54° Northeast  Level Estimated
02:44AM 28.0273 125.9838 54° Northeast  Level Estimated
02:45AM 28.1015 126.0988 54° Northeast  Level Estimated
02:46AM 28.1755 126.2140 54° Northeast  Level Estimated
02:47AM 28.2495 126.3293 54° Northeast  Level Estimated
02:48AM 28.3234 126.4447 54° Northeast  Level Estimated
02:49AM 28.3972 126.5603 54° Northeast  Level Estimated
02:50AM 28.4709 126.6761 54° Northeast  Level Estimated
02:51AM 28.5445 126.7921 54° Northeast  Level Estimated
02:52AM 28.6180 126.9082 54° Northeast  Level Estimated
02:53AM 28.6914 127.0244 54° Northeast  Level Estimated
02:54AM 28.7647 127.1408 54° Northeast  Level Estimated
02:55AM 28.8379 127.2574 54° Northeast  Level Estimated
02:56AM 28.9110 127.3742 54° Northeast  Level Estimated
02:57AM 28.9840 127.4911 54° Northeast  Level Estimated
02:58AM 29.0569 127.6082 55° Northeast  Level Estimated
02:59AM 29.1297 127.7255 55° Northeast  Level Estimated
03:00AM 29.2024 127.8429 55° Northeast  Level Estimated
03:01AM 29.2750 127.9605 55° Northeast  Level Estimated
03:02AM 29.3475 128.0782 55° Northeast  Level Estimated
03:03AM 29.4199 128.1961 55° Northeast  Level Estimated
03:04AM 29.4921 128.3142 55° Northeast  Level Estimated
03:05AM 29.5643 128.4325 55° Northeast  Level Estimated
03:06AM 29.6364 128.5509 55° Northeast  Level Estimated
03:07AM 29.7084 128.6695 55° Northeast  Level Estimated
03:08AM 29.7802 128.7883 55° Northeast  Level Estimated
03:09AM 29.8520 128.9072 55° Northeast  Level Estimated
03:10AM 29.9236 129.0263 55° Northeast  Level Estimated
03:11AM 29.9952 129.1456 55° Northeast  Level Estimated
03:12AM 30.0666 129.2650 55° Northeast  Level Estimated
03:13AM 30.1379 129.3846 55° Northeast  Level Estimated
03:14AM 30.2091 129.5044 55° Northeast  Level Estimated
03:15AM 30.2802 129.6244 56° Northeast  Level Estimated
03:16AM 30.3512 129.7445 56° Northeast  Level Estimated
03:17AM 30.4221 129.8649 56° Northeast  Level Estimated
03:18AM 30.4929 129.9853 56° Northeast  Level Estimated
03:19AM 30.5636 130.1060 56° Northeast  Level Estimated
03:20AM 30.6341 130.2268 56° Northeast  Level Estimated
03:21AM 30.7046 130.3479 56° Northeast  Level Estimated
03:22AM 30.7749 130.4691 56° Northeast  Level Estimated
03:23AM 30.8451 130.5904 56° Northeast  Level Estimated
03:24AM 30.9152 130.7120 56° Northeast  Level Estimated
03:25AM 30.9852 130.8337 56° Northeast  Level Estimated
03:26AM 31.0551 130.9556 56° Northeast  Level Estimated
03:27AM 31.1248 131.0777 56° Northeast  Level Estimated
03:28AM 31.1945 131.2000 56° Northeast  Level Estimated
03:29AM 31.2640 131.3224 56° Northeast  Level Estimated
03:30AM 31.3334 131.4450 56° Northeast  Level Estimated
03:31AM 31.4027 131.5678 57° Northeast  Level Estimated
03:32AM 31.4719 131.6908 57° Northeast  Level Estimated
03:33AM 31.5410 131.8140 57° Northeast  Level Estimated
03:34AM 31.6099 131.9373 57° Northeast  Level Estimated
03:35AM 31.6787 132.0609 57° Northeast  Level Estimated
03:36AM 31.7474 132.1846 57° Northeast  Level Estimated
03:37AM 31.8160 132.3085 57° Northeast  Level Estimated
03:38AM 31.8845 132.4326 57° Northeast  Level Estimated
03:39AM 31.9529 132.5568 57° Northeast  Level Estimated
03:40AM 32.0211 132.6813 57° Northeast  Level Estimated
03:41AM 32.0892 132.8059 57° Northeast  Level Estimated
03:42AM 32.1572 132.9307 57° Northeast  Level Estimated
03:43AM 32.2250 133.0558 57° Northeast  Level Estimated
03:44AM 32.2928 133.1810 57° Northeast  Level Estimated
03:45AM 32.3604 133.3063 57° Northeast  Level Estimated
03:46AM 32.4278 133.4319 57° Northeast  Level Estimated
03:47AM 32.4952 133.5577 58° Northeast  Level Estimated
03:48AM 32.5624 133.6836 58° Northeast  Level Estimated
03:49AM 32.6296 133.8098 58° Northeast  Level Estimated
03:50AM 32.6965 133.9361 58° Northeast  Level Estimated
03:51AM 32.7634 134.0626 58° Northeast  Level Estimated
03:52AM 32.8301 134.1893 58° Northeast  Level Estimated
03:53AM 32.8967 134.3162 58° Northeast  Level Estimated
03:54AM 32.9632 134.4433 58° Northeast  Level Estimated
03:55AM 33.0295 134.5706 58° Northeast  Level Estimated
03:56AM 33.0958 134.6980 58° Northeast  Level Estimated
03:57AM 33.1618 134.8257 58° Northeast  Level Estimated
03:58AM 33.2278 134.9535 58° Northeast  Level Estimated
03:58AM 33.2402 135.8430 77° East 493 567 41,000  Level FlightAware ADS-B
03:59AM 33.2936 135.0816 58° Northeast  Level Estimated
04:00AM 33.2894 136.0712 77° East 494 568 41,000  Level FlightAware ADS-B
04:01AM 33.3227 136.2265 77° East 496 571 41,000  Level FlightAware ADS-B
04:01AM 33.3448 136.3302 77° East 496 571 41,000  Level FlightAware ADS-B
04:02AM 33.3793 136.4939 77° East 499 574 41,000  Level FlightAware ADS-B
04:03AM 33.4135 136.6565 77° East 500 575 41,000  Level FlightAware ADS-B
04:04AM 33.4359 136.7640 77° East 500 575 41,000  Level FlightAware ADS-B
04:05AM 33.4581 136.8702 77° East 502 578 41,000 -120 Level FlightAware ADS-B
04:06AM 33.4911 137.0298 77° East 504 580 40,900 -480 Descending FlightAware ADS-B
04:06AM 33.5141 137.1417 77° East 505 581 40,200 -1,200 Descending FlightAware ADS-B
04:07AM 33.5368 137.2484 72° East 511 588 39,300 -900 Descending FlightAware ADS-B
04:08AM 33.5851 137.3508 49° Northeast 516 594 39,000 -240 Descending FlightAware ADS-B
04:08AM 33.6537 137.4167 29° Northeast 514 592 39,000  Level FlightAware ADS-B
04:09AM 33.7433 137.4695 26° Northeast 502 578 39,000  Level FlightAware ADS-B
04:10AM 33.8237 137.5153 26° Northeast 501 577 39,000  Level FlightAware ADS-B
04:10AM 33.9127 137.5661 26° Northeast 499 574 39,000  Level FlightAware ADS-B
04:11AM 33.9950 137.6126 26° Northeast 495 570 39,000  Level FlightAware ADS-B
04:12AM 34.1226 137.6843 25° Northeast 495 570 39,000  Level FlightAware ADS-B
04:13AM 34.2067 137.7303 24° Northeast 499 574 39,000  Level FlightAware ADS-B
04:13AM 34.2921 137.7779 26° Northeast 480 552 39,000  Level FlightAware ADS-B
04:14AM 34.3730 137.8235 25° Northeast 477 549 39,000  Level FlightAware ADS-B
04:15AM 34.4869 137.8970 40° Northeast 483 556 39,000  Level FlightAware ADS-B
04:15AM 34.5219 137.9420 53° Northeast 486 559 39,000  Level FlightAware ADS-B
04:16AM 34.5424 137.9890 71° East 488 562 39,000 -180 Level FlightAware ADS-B
04:16AM 34.5501 138.0350 88° East 488 562 38,900 -1,800 Descending FlightAware ADS-B
04:17AM 34.5364 138.1500 100° East 486 559 37,200 -2,160 Descending FlightAware ADS-B
04:18AM 34.5100 138.3104 101° East 473 544 35,300 -1,680 Descending FlightAware ADS-B
04:18AM 34.4928 138.4138 100° East 457 526 34,400 -1,500 Descending FlightAware ADS-B
04:19AM 34.4770 138.5092 100° East 448 516 33,400 -1,740 Descending FlightAware ADS-B
04:20AM 34.4603 138.6104 101° East 446 513 32,100 -1,860 Descending FlightAware ADS-B
04:20AM 34.4440 138.7082 101° East 445 512 30,900 -1,740 Descending FlightAware ADS-B
04:21AM 34.4285 138.8001 100° East 442 509 29,900 -1,620 Descending FlightAware ADS-B
04:22AM 34.4121 138.9021 97° East 440 506 28,800 -1,320 Descending FlightAware ADS-B
04:22AM 34.4114 138.9439 83° East 442 509 28,300 -1,320 Descending FlightAware ADS-B (EGKA / ESH)
04:23AM 34.4450 139.0892 73° East 431 496 27,100 -1,440 Descending FlightAware ADS-B
04:24AM 34.4745 139.1988 72° East 424 488 25,900 -1,320 Descending FlightAware ADS-B (EGKA / ESH)
04:25AM 34.4926 139.2661 72° East 421 484 25,200 -1,320 Descending FlightAware ADS-B (EGKA / ESH)
04:25AM 34.5168 139.3559 72° East 413 475 24,300 -1,320 Descending FlightAware ADS-B (EGKA / ESH)
04:26AM 34.5383 139.4355 72° East 408 470 23,600 -1,260 Descending FlightAware ADS-B (EGKA / ESH)
04:27AM 34.5641 139.5307 72° East 400 460 22,700 -1,440 Descending FlightAware ADS-B (EGKA / ESH)
04:27AM 34.5761 139.5756 74° East 393 452 22,300 -1,620 Descending FlightAware ADS-B
04:27AM 34.5885 139.6208 68° East 392 451 21,500 -1,980 Descending FlightAware ADS-B (EGKA / ESH)
04:28AM 34.6152 139.6859 59° Northeast 386 444 20,200 -2,640 Descending FlightAware ADS-B (EGKA / ESH)
04:28AM 34.6433 139.7416 59° Northeast 379 436 18,900 -2,640 Descending FlightAware ADS-B (EGKA / ESH)
04:29AM 34.6704 139.7956 59° Northeast 372 428 17,600 -2,640 Descending FlightAware ADS-B (EGKA / ESH)
04:29AM 34.6993 139.8538 59° Northeast 370 426 16,000 -2,400 Descending FlightAware ADS-B (EGKA / ESH)
04:30AM 34.7304 139.9095 52° Northeast 364 419 15,400 -1,140 Descending FlightAware ADS-B
04:30AM 34.7573 139.9487 50° Northeast 366 421 15,000 -840 Descending FlightAware ADS-B (EGKA / ESH)
04:31AM 34.7883 139.9926 50° Northeast 365 420 14,500 -900 Descending FlightAware ADS-B (EGKA / ESH)
04:32AM 34.8382 140.0653 51° Northeast 364 419 13,900 -720 Descending FlightAware ADS-B (EGKA / ESH)
04:32AM 34.8671 140.1082 50° Northeast 361 415 13,600 -720 Descending FlightAware ADS-B (EGKA / ESH)
04:33AM 34.9170 140.1774 38° Northeast 360 414 13,000 -840 Descending FlightAware ADS-B (EGKA / ESH)
04:34AM 34.9836 140.2310 33° Northeast 359 413 12,400 -720 Descending FlightAware ADS-B (EGKA / ESH)
04:34AM 35.0243 140.2626 33° Northeast 359 413 12,100 -600 Descending FlightAware ADS-B (EGKA / ESH)
04:35AM 35.0687 140.2970 32° Northeast 357 411 11,800 -600 Descending FlightAware ADS-B (EGKA / ESH)
04:35AM 35.0975 140.3191 33° Northeast 351 404 11,700 -420 Descending FlightAware ADS-B
04:35AM 35.1311 140.3450 32° Northeast 358 412 11,500 -480 Descending FlightAware ADS-B (EGKA / ESH)
04:36AM 35.1740 140.3763 26° Northeast 355 409 11,200 -600 Descending FlightAware ADS-B (EGKA / ESH)
04:36AM 35.2211 140.3941 15° North 337 388 10,900 -660 Descending FlightAware ADS-B (EGKA / ESH)
04:37AM 35.2730 140.4075 359° North 307 353 10,600 -720 Descending FlightAware ADS-B
04:37AM 35.2861 140.4052 346° North 305 351 10,400 -900 Descending FlightAware ADS-B (EGKA / ESH)
04:37AM 35.3041 140.3943 323° Northwest 280 322 10,100 -2,160 Descending FlightAware ADS-B (EGKA / ESH)
04:38AM 35.3184 140.3782 314° West 278 320 9,300 -2,760 Descending FlightAware ADS-B (EGKA / ESH)
04:38AM 35.3323 140.3605 314° West 277 319 8,700 -2,220 Descending FlightAware ADS-B (EGKA / ESH)
04:38AM 35.3445 140.3449 314° West 275 316 8,200 -1,800 Descending FlightAware ADS-B (EGKA / ESH)
04:39AM 35.3680 140.3148 314° West 267 307 7,400 -1,800 Descending FlightAware ADS-B (EGKA / ESH)
04:39AM 35.3835 140.2951 314° West 270 311 6,900 -1,800 Descending FlightAware ADS-B (EGKA / ESH)
04:39AM 35.3977 140.2772 314° West 273 314 6,500 -1,200 Descending FlightAware ADS-B (EGKA / ESH)
04:39AM 35.4105 140.2609 314° West 267 307 6,300 -960 Descending FlightAware ADS-B (EGKA / ESH)
04:40AM 35.4342 140.2312 314° West 260 299 5,800 -840 Descending FlightAware ADS-B (EGKA / ESH)
04:40AM 35.4485 140.2139 316° Northwest 249 287 5,700 -600 Descending FlightAware ADS-B (EGKA / ESH)
04:40AM 35.4603 140.1999 316° Northwest 248 285 5,500 -300 Descending FlightAware ADS-B (EGKA / ESH)
04:41AM 35.4842 140.1715 316° Northwest 244 281 5,500  Level FlightAware ADS-B (EGKA / ESH)
04:41AM 35.4970 140.1562 316° Northwest 245 282 5,500  Level FlightAware ADS-B (EGKA / ESH)
04:41AM 35.5033 140.1486 316° Northwest 246 283 5,500  Level FlightAware ADS-B (RJTF)
04:41AM 35.5100 140.1405 315° West 248 285 5,500  Level FlightAware ADS-B (EGKA / ESH)
04:42AM 35.5188 140.1298 316° Northwest 241 277 5,500  Level FlightAware ADS-B (RJTF)
04:42AM 35.5218 140.1262 316° Northwest 236 272 5,500  Level FlightAware ADS-B (EGKA / ESH)
04:42AM 35.5328 140.1134 316° Northwest 229 264 5,500  Level FlightAware ADS-B (EGKA / ESH)
04:42AM 35.5302 140.1164 317° Northwest 228 262 5,500  Level FlightAware ADS-B (RJTF)
04:42AM 35.5451 140.0991 320° Northwest 230 265 5,500 -300 Level FlightAware ADS-B (RJTF)
04:42AM 35.5501 140.0945 326° Northwest 234 269 5,400  Descending FlightAware ADS-B (RJTF)
04:42AM 35.5581 140.0900 343° North 242 278 5,500 600 Climbing FlightAware ADS-B (EGKA / ESH)
04:42AM 35.5614 140.0891 348° North 245 282 5,500  Level FlightAware ADS-B (RJTF)
04:42AM 35.5679 140.0884 358° North 249 287 5,500  Level FlightAware ADS-B (RJTF)
04:43AM 35.5725 140.0888 North 253 291 5,500  Level FlightAware ADS-B (RJTF)
04:43AM 35.5744 140.0892 13° North 257 296 5,500  Level FlightAware ADS-B (EGKA / ESH)
04:43AM 35.5772 140.0901 14° North 257 296 5,500  Level FlightAware ADS-B (RJTF)
04:43AM 35.5849 140.0940 27° Northeast 256 295 5,500  Level FlightAware ADS-B (RJTF)
04:43AM 35.5894 140.0973 32° Northeast 256 295 5,500  Level FlightAware ADS-B (RJTF)
04:43AM 35.5917 140.0992 35° Northeast 255 293 5,500  Level FlightAware ADS-B (EGKA / ESH)
04:43AM 35.5973 140.1040 44° Northeast 249 287 5,500  Level FlightAware ADS-B (EGKA / ESH)
04:43AM 35.6116 140.1209 51° Northeast 243 280 5,500  Level FlightAware ADS-B (RJTF)
04:43AM 35.6158 140.1310 66° East 234 269 5,500  Level FlightAware ADS-B (EGKA / ESH)
04:44AM 35.6275 140.1680 70° East 232 267 5,500  Level FlightAware ADS-B (EGKA / ESH)
04:44AM 35.6332 140.1867 70° East 231 266 5,500  Level FlightAware ADS-B (EGKA / ESH)
04:44AM 35.6343 140.1904 69° East 230 265 5,500  Level FlightAware ADS-B (RJTF)
04:44AM 35.6435 140.2204 64° Northeast 229 264 5,500  Level FlightAware ADS-B
04:45AM 35.6453 140.2241 58° Northeast 235 270 5,500  Level FlightAware ADS-B (RJTF)
04:45AM 35.6561 140.2367 30° Northeast 245 282 5,500  Level FlightAware ADS-B (EGKA / ESH)
04:45AM 35.6592 140.2386 58° Northeast 235 270 5,500  Level FlightAware ADS-B (RJTF)
04:45AM 35.6726 140.2424 North 248 285 5,500  Level FlightAware ADS-B (EGKA / ESH)
04:45AM 35.6787 140.2422 357° North 247 284 5,500  Level FlightAware ADS-B (RJTF)
04:45AM 35.6903 140.2405 352° North 246 283 5,500  Level FlightAware ADS-B (EGKA / ESH)
04:45AM 35.6995 140.2387 352° North 245 282 5,500  Level FlightAware ADS-B (RJTF)
04:46AM 35.7238 140.2338 351° North 250 288 5,500  Level FlightAware ADS-B (EGKA / ESH)
04:46AM 35.7380 140.2299 342° North 245 282 5,500  Level FlightAware ADS-B (EGKA / ESH)
04:47AM 35.7701 140.2133 335° Northwest 238 274 5,500  Level FlightAware ADS-B (EGKA / ESH)
04:47AM 35.8013 140.1948 334° Northwest 238 274 5,500  Level FlightAware ADS-B (EGKA / ESH)
04:47AM 35.8279 140.1767 327° Northwest 235 270 5,500  Level FlightAware ADS-B
04:48AM 35.8373 140.1690 326° Northwest 235 270 5,500  Level FlightAware ADS-B (EGKA / ESH)
04:48AM 35.8650 140.1412 299° West 204 235 5,500  Level FlightAware ADS-B (EGKA / ESH)
04:48AM 35.8709 140.1254 289° West 193 222 5,500  Level FlightAware ADS-B
04:49AM 35.8740 140.1148 286° West 189 217 5,500  Level FlightAware ADS-B (EGKA / ESH)
04:49AM 35.8741 140.0936 261° West 167 192 5,500  Level FlightAware ADS-B (EGKA / ESH)
04:49AM 35.8695 140.0669 257° West 165 190 5,500  Level FlightAware ADS-B
04:50AM 35.8667 140.0514 255° West 164 189 5,500  Level FlightAware ADS-B (EGKA / ESH)
04:50AM 35.8607 140.0323 238° Southwest 152 175 5,500  Level FlightAware ADS-B
04:50AM 35.8509 140.0199 219° Southwest 147 169 5,500  Level FlightAware ADS-B
04:51AM 35.8456 140.0151 212° Southwest 145 167 5,500  Level FlightAware ADS-B (EGKA / ESH)
04:51AM 35.8322 140.0051 212° Southwest 146 168 5,500  Level FlightAware ADS-B (EGKA / ESH)
04:51AM 35.8253 139.9996 214° Southwest 146 168 5,500  Level FlightAware ADS-B (EGKA / ESH)
04:52AM 35.8080 139.9848 216° Southwest 148 170 5,500  Level FlightAware ADS-B (EGKA / ESH)
04:52AM 35.8014 139.9787 215° Southwest 149 171 5,500  Level FlightAware ADS-B (EGKA / ESH)
04:52AM 35.7902 139.9689 215° Southwest 149 171 5,500 -300 Level FlightAware ADS-B (EGKA / ESH)
04:53AM 35.7753 139.9563 216° Southwest 151 174 5,300 -720 Descending FlightAware ADS-B (EGKA / ESH)
04:53AM 35.7701 139.9517 215° Southwest 151 174 5,000 -1,140 Descending FlightAware ADS-B (EGKA / ESH)
04:53AM 35.7559 139.9394 215° Southwest 148 170 4,700 -780 Descending FlightAware ADS-B (EGKA / ESH)
04:54AM 35.7479 139.9325 215° Southwest 147 169 4,600 -600 Descending FlightAware ADS-B (EGKA / ESH)
04:54AM 35.7399 139.9257 215° Southwest 147 169 4,400 -840 Descending FlightAware ADS-B (EGKA / ESH)
04:54AM 35.7306 139.9175 215° Southwest 147 169 4,200 -780 Descending FlightAware ADS-B (EGKA / ESH)
04:54AM 35.7221 139.9102 215° Southwest 145 167 4,000 -840 Descending FlightAware ADS-B (EGKA / ESH)
04:55AM 35.7076 139.8981 214° Southwest 146 168 3,600 -840 Descending FlightAware ADS-B (EGKA / ESH)
04:55AM 35.6968 139.8884 217° Southwest 149 171 3,400 -720 Descending FlightAware ADS-B (EGKA / ESH)
04:56AM 35.6851 139.8782 214° Southwest 121 139 3,100 -720 Descending FlightAware ADS-B (EGKA / ESH)
04:56AM 35.6755 139.8702 215° Southwest 117 135 2,900 -600 Descending FlightAware ADS-B (EGKA / ESH)
04:56AM 35.6713 139.8665 216° Southwest 115 132 2,800 -600 Descending FlightAware ADS-B (EGKA / ESH)
04:56AM 35.6629 139.8591 215° Southwest 116 133 2,600 -600 Descending FlightAware ADS-B (EGKA / ESH)
04:57AM 35.6565 139.8538 214° Southwest 116 133 2,500 -600 Descending FlightAware ADS-B (EGKA / ESH)
04:57AM 35.6487 139.8471 216° Southwest 115 132 2,300 -600 Descending FlightAware ADS-B (EGKA / ESH)
04:57AM 35.6426 139.8418 215° Southwest 119 137 2,200 -600 Descending FlightAware ADS-B (EGKA / ESH)
04:58AM 35.6297 139.8306 216° Southwest 120 138 1,900 -720 Descending FlightAware ADS-B (EGKA / ESH)
04:58AM 35.6253 139.8267 215° Southwest 112 129 1,700 -600 Descending FlightAware ADS-B (EGKA / ESH)
04:58AM 35.6176 139.8202 214° Southwest 112 129 1,600 -600 Descending FlightAware ADS-B (EGKA / ESH)
04:58AM 35.6095 139.8133 215° Southwest 113 130 1,400 -600 Descending FlightAware ADS-B (EGKA / ESH)
04:59AM 35.5961 139.8018 216° Southwest 118 136 1,200 -600 Descending FlightAware ADS-B (RJTF)
04:59AM 35.5900 139.7965 216° Southwest 121 139 1,000 -840 Descending FlightAware ADS-B (RJTF)
04:59AM 35.5902 139.7966 215° Southwest 123 142 1,000 -1,020 Level FlightAware ADS-B (EGKA / ESH)
04:59AM 35.5772 139.7855 218° Southwest 125 144 700 -660 Descending FlightAware ADS-B
05:00AM 35.5605 139.7710 217° Southwest 127 146 500 -420 Descending FlightAware ADS-B